createdAt,value
2023-02-26T00:00:21.667Z,1.60
2023-02-26T00:02:49.531Z,1.27
2023-02-26T00:05:17.317Z,1.13
2023-02-26T00:07:45.066Z,1.40
2023-02-26T00:10:13.740Z,1.07
2023-02-26T00:12:41.190Z,1.17
2023-02-26T00:15:13.401Z,1.20
2023-02-26T00:17:56.993Z,1.33
2023-02-26T00:20:26.639Z,1.03
2023-02-26T00:22:54.628Z,1.10
2023-02-26T00:25:22.118Z,1.17
2023-02-26T00:27:50.383Z,0.80
2023-02-26T00:30:18.163Z,1.30
2023-02-26T00:32:46.187Z,1.00
2023-02-26T00:35:15.241Z,1.20
2023-02-26T00:37:54.692Z,1.10
2023-02-26T00:40:24.206Z,0.90
2023-02-26T00:42:51.979Z,1.07
2023-02-26T00:45:19.557Z,1.07
2023-02-26T00:47:56.419Z,1.27
2023-02-26T00:50:25.478Z,0.83
2023-02-26T00:53:09.664Z,1.10
2023-02-26T00:55:37.243Z,1.10
2023-02-26T00:58:05.965Z,1.00
2023-02-26T01:00:33.305Z,1.30
2023-02-26T01:03:00.693Z,1.27
2023-02-26T01:05:28.549Z,1.10
2023-02-26T01:08:14.400Z,1.20
2023-02-26T01:10:42.528Z,1.10
2023-02-26T01:13:10.220Z,1.10
2023-02-26T01:15:38.008Z,1.20
2023-02-26T01:18:43.829Z,1.17
2023-02-26T01:21:15.683Z,0.70
2023-02-26T01:23:47.183Z,0.90
2023-02-26T01:26:24.381Z,1.63
2023-02-26T01:28:52.828Z,1.20
2023-02-26T01:31:44.118Z,0.80
2023-02-26T01:34:44.571Z,0.93
2023-02-26T01:37:20.943Z,1.10
2023-02-26T01:40:03.625Z,0.80
2023-02-26T01:42:36.085Z,1.60
2023-02-26T01:45:14.180Z,0.90
2023-02-26T01:48:01.423Z,1.00
2023-02-26T01:50:32.448Z,0.90
2023-02-26T01:53:24.407Z,1.10
2023-02-26T01:56:17.641Z,0.90
2023-02-26T01:58:45.274Z,0.73
2023-02-26T02:01:12.493Z,0.70
2023-02-26T02:03:40.564Z,0.90
2023-02-26T02:06:12.303Z,1.10
2023-02-26T02:08:39.832Z,0.90
2023-02-26T02:11:09.167Z,0.90
2023-02-26T02:13:48.636Z,0.93
2023-02-26T02:16:32.606Z,0.80
2023-02-26T02:19:37.406Z,0.90
2023-02-26T02:22:04.489Z,1.10
2023-02-26T02:24:47.143Z,0.90
2023-02-26T02:27:39.748Z,1.10
2023-02-26T02:30:20.445Z,0.90
2023-02-26T02:32:51.940Z,0.70
2023-02-26T02:35:24.470Z,0.63
2023-02-26T02:37:59.301Z,0.90
2023-02-26T02:40:38.059Z,1.00
2023-02-26T02:43:11.363Z,0.60
2023-02-26T02:46:06.178Z,0.80
2023-02-26T02:48:42.130Z,0.80
2023-02-26T02:51:33.058Z,0.90
2023-02-26T02:54:12.708Z,1.00
2023-02-26T02:56:47.565Z,0.67
2023-02-26T02:59:25.816Z,0.70
2023-02-26T03:02:15.284Z,0.90
2023-02-26T03:04:43.147Z,1.00
2023-02-26T03:07:10.536Z,1.17
2023-02-26T03:09:37.944Z,1.17
2023-02-26T03:12:05.305Z,1.53
2023-02-26T03:14:32.990Z,0.80
2023-02-26T03:17:17.096Z,0.90
2023-02-26T03:20:09.600Z,1.27
2023-02-26T03:22:55.029Z,1.00
2023-02-26T03:25:27.204Z,1.13
2023-02-26T03:28:08.161Z,1.33
2023-02-26T03:30:41.406Z,1.10
2023-02-26T03:33:20.865Z,1.30
2023-02-26T03:36:01.404Z,1.30
2023-02-26T03:38:36.861Z,1.30
2023-02-26T03:41:10.672Z,1.27
2023-02-26T03:43:51.644Z,1.20
2023-02-26T03:46:24.862Z,1.30
2023-02-26T03:48:52.706Z,1.10
2023-02-26T03:51:20.147Z,1.40
2023-02-26T03:53:52.537Z,1.00
2023-02-26T03:56:22.638Z,1.00
2023-02-26T03:58:50.331Z,1.30
2023-02-26T04:01:21.729Z,1.17
2023-02-26T04:03:52.663Z,1.27
2023-02-26T04:06:20.756Z,1.10
2023-02-26T04:08:48.305Z,1.20
2023-02-26T04:11:20.299Z,1.20
2023-02-26T04:13:47.750Z,1.30
2023-02-26T04:16:15.276Z,1.10
2023-02-26T04:18:43.042Z,1.20
2023-02-26T04:21:15.186Z,1.20
2023-02-26T04:23:42.607Z,1.60
2023-02-26T04:26:09.870Z,1.23
2023-02-26T04:28:38.298Z,1.50
2023-02-26T04:31:06.332Z,1.53
2023-02-26T04:33:33.708Z,1.70
2023-02-26T04:36:01.408Z,1.40
2023-02-26T04:38:29.116Z,1.10
2023-02-26T04:40:56.437Z,1.10
2023-02-26T04:43:24.187Z,1.10
2023-02-26T04:45:51.369Z,1.30
2023-02-26T04:48:19.400Z,1.30
2023-02-26T04:50:47.540Z,1.17
2023-02-26T04:53:14.962Z,1.30
2023-02-26T04:55:42.606Z,1.27
2023-02-26T04:58:10.129Z,1.20
2023-02-26T05:00:37.552Z,1.40
2023-02-26T05:03:05.035Z,1.57
2023-02-26T05:05:32.892Z,1.57
2023-02-26T05:08:00.485Z,1.73
2023-02-26T05:10:28.110Z,1.53
2023-02-26T05:12:55.488Z,1.40
2023-02-26T05:15:22.918Z,1.40
2023-02-26T05:17:50.448Z,14.63
2023-02-26T05:20:18.201Z,4.67
2023-02-26T05:22:45.526Z,2.33
2023-02-26T05:25:13.309Z,2.23
2023-02-26T05:27:42.733Z,1.63
2023-02-26T05:30:11.154Z,2.23
2023-02-26T05:32:38.484Z,2.10
2023-02-26T05:35:06.221Z,1.90
2023-02-26T05:37:33.552Z,1.70
2023-02-26T05:40:00.783Z,2.20
2023-02-26T05:42:28.114Z,1.73
2023-02-26T05:44:55.475Z,3.20
2023-02-26T05:47:22.974Z,2.20
2023-02-26T05:49:50.675Z,2.70
2023-02-26T05:52:18.128Z,2.10
2023-02-26T05:54:45.661Z,2.50
2023-02-26T05:57:13.109Z,1.77
2023-02-26T05:59:40.562Z,1.97
2023-02-26T06:02:07.898Z,4.33
2023-02-26T06:04:35.909Z,3.00
2023-02-26T06:07:03.192Z,2.10
2023-02-26T06:09:30.544Z,1.80
2023-02-26T06:11:57.880Z,1.90
2023-02-26T06:14:25.203Z,2.23
2023-02-26T06:16:52.699Z,1.60
2023-02-26T06:19:21.913Z,1.80
2023-02-26T06:21:49.387Z,2.10
2023-02-26T06:24:16.809Z,2.30
2023-02-26T06:26:44.176Z,3.27
2023-02-26T06:29:11.588Z,2.00
2023-02-26T06:31:38.955Z,1.90
2023-02-26T06:34:06.460Z,1.90
2023-02-26T06:36:33.813Z,1.80
2023-02-26T06:39:01.261Z,1.67
2023-02-26T06:41:28.782Z,1.87
2023-02-26T06:43:56.159Z,2.00
2023-02-26T06:46:23.734Z,2.13
2023-02-26T06:48:51.374Z,1.83
2023-02-26T06:51:18.832Z,2.07
2023-02-26T06:53:46.164Z,3.50
2023-02-26T06:56:13.696Z,2.40
2023-02-26T06:58:41.072Z,2.20
2023-02-26T07:01:08.329Z,2.57
2023-02-26T07:03:35.822Z,2.30
2023-02-26T07:06:23.704Z,2.00
2023-02-26T07:08:50.753Z,2.10
2023-02-26T07:11:18.311Z,2.07
2023-02-26T07:13:45.665Z,2.50
2023-02-26T07:16:13.004Z,4.27
2023-02-26T07:18:40.410Z,4.77
2023-02-26T07:21:07.870Z,3.70
2023-02-26T07:23:35.449Z,2.07
2023-02-26T07:26:02.761Z,2.03
2023-02-26T07:28:30.276Z,4.83
2023-02-26T07:30:57.982Z,6.87
2023-02-26T07:33:26.885Z,6.27
2023-02-26T07:35:54.504Z,2.33
2023-02-26T07:38:21.839Z,3.80
2023-02-26T07:40:49.372Z,3.80
2023-02-26T07:43:16.832Z,2.50
2023-02-26T07:45:44.342Z,2.13
2023-02-26T07:48:11.902Z,3.10
2023-02-26T07:50:39.232Z,3.90
2023-02-26T07:53:06.704Z,9.93
2023-02-26T07:55:34.114Z,7.73
2023-02-26T07:58:01.576Z,2.30
2023-02-26T08:00:28.993Z,2.37
2023-02-26T08:02:56.335Z,3.30
2023-02-26T08:05:23.737Z,2.57
2023-02-26T08:07:51.017Z,2.90
2023-02-26T08:10:18.485Z,2.10
2023-02-26T08:12:45.828Z,4.23
2023-02-26T08:15:16.072Z,2.93
2023-02-26T08:17:43.534Z,2.80
2023-02-26T08:20:12.278Z,2.70
2023-02-26T08:22:39.731Z,2.30
2023-02-26T08:25:08.008Z,2.40
2023-02-26T08:27:35.389Z,2.00
2023-02-26T08:30:03.966Z,2.33
2023-02-26T08:32:31.311Z,2.17
2023-02-26T08:34:58.781Z,1.97
2023-02-26T08:37:26.223Z,2.80
2023-02-26T08:39:53.610Z,1.87
2023-02-26T08:42:21.030Z,2.00
2023-02-26T08:44:48.625Z,2.13
2023-02-26T08:47:24.504Z,2.60
2023-02-26T08:49:55.559Z,4.93
2023-02-26T08:52:23.005Z,1.90
2023-02-26T08:54:50.346Z,2.00
2023-02-26T08:57:17.825Z,1.70
2023-02-26T08:59:45.321Z,1.60
2023-02-26T09:02:13.479Z,1.30
2023-02-26T09:04:40.963Z,1.70
2023-02-26T09:07:08.536Z,1.90
2023-02-26T09:09:35.937Z,1.80
2023-02-26T09:12:03.374Z,1.50
2023-02-26T09:14:30.923Z,1.70
2023-02-26T09:16:58.376Z,1.50
2023-02-26T09:19:25.982Z,1.60
2023-02-26T09:21:53.573Z,2.37
2023-02-26T09:24:20.961Z,1.70
2023-02-26T09:26:48.236Z,1.47
2023-02-26T09:29:15.822Z,5.10
2023-02-26T09:31:43.342Z,1.70
2023-02-26T09:34:11.623Z,1.70
2023-02-26T09:36:39.683Z,2.00
2023-02-26T09:39:08.992Z,1.23
2023-02-26T09:41:50.747Z,2.17
2023-02-26T09:44:23.880Z,3.03
2023-02-26T09:47:05.948Z,3.90
2023-02-26T09:49:42.257Z,1.90
2023-02-26T09:52:26.779Z,3.10
2023-02-26T09:55:01.967Z,8.83
2023-02-26T09:57:34.851Z,2.10
2023-02-26T10:00:03.124Z,2.00
2023-02-26T10:02:45.820Z,2.10
2023-02-26T10:05:48.623Z,1.27
2023-02-26T10:08:17.451Z,1.40
2023-02-26T10:11:41.955Z,1.10
2023-02-26T10:14:18.006Z,1.30
2023-02-26T10:16:47.761Z,1.90
2023-02-26T10:19:17.492Z,1.20
2023-02-26T10:21:49.941Z,1.70
2023-02-26T10:24:47.903Z,1.50
2023-02-26T10:27:16.800Z,2.63
2023-02-26T10:30:01.130Z,2.50
2023-02-26T10:32:49.904Z,1.20
2023-02-26T10:35:17.979Z,1.80
2023-02-26T10:37:56.737Z,2.03
2023-02-26T10:40:49.275Z,1.67
2023-02-26T10:43:36.309Z,1.30
2023-02-26T10:46:27.190Z,1.10
2023-02-26T10:49:22.346Z,1.10
2023-02-26T10:51:53.107Z,1.40
2023-02-26T10:54:35.915Z,0.77
2023-02-26T10:57:04.420Z,1.20
2023-02-26T10:59:32.175Z,1.20
2023-02-26T11:01:59.698Z,1.23
2023-02-26T11:04:27.313Z,1.30
2023-02-26T11:07:00.225Z,1.30
2023-02-26T11:09:28.898Z,1.20
2023-02-26T11:12:14.908Z,0.90
2023-02-26T11:14:46.224Z,1.40
2023-02-26T11:17:21.006Z,1.10
2023-02-26T11:19:58.278Z,1.40
2023-02-26T11:22:31.586Z,1.47
2023-02-26T11:24:59.039Z,1.33
2023-02-26T11:27:32.369Z,1.50
2023-02-26T11:30:03.681Z,1.83
2023-02-26T11:32:36.364Z,1.90
2023-02-26T11:35:04.596Z,2.00
2023-02-26T11:37:35.510Z,2.70
2023-02-26T11:40:15.240Z,2.90
2023-02-26T11:42:54.481Z,3.37
2023-02-26T11:45:22.395Z,1.47
2023-02-26T11:47:51.780Z,3.20
2023-02-26T11:50:28.261Z,3.40
2023-02-26T11:53:05.826Z,1.83
2023-02-26T11:55:36.257Z,1.50
2023-02-26T11:58:04.983Z,1.50
2023-02-26T12:00:36.321Z,1.33
2023-02-26T12:03:05.332Z,1.43
2023-02-26T12:05:32.974Z,1.60
2023-02-26T12:08:00.357Z,1.00
2023-02-26T12:10:44.023Z,1.70
2023-02-26T12:13:35.620Z,1.80
2023-02-26T12:16:18.067Z,2.03
2023-02-26T12:18:45.936Z,2.60
2023-02-26T12:21:16.222Z,1.23
2023-02-26T12:24:08.123Z,2.40
2023-02-26T12:26:35.972Z,1.43
2023-02-26T12:29:15.699Z,1.20
2023-02-26T12:31:54.854Z,1.43
2023-02-26T12:34:31.260Z,1.47
2023-02-26T12:37:24.864Z,1.30
2023-02-26T12:40:12.094Z,1.10
2023-02-26T12:43:00.429Z,1.20
2023-02-26T12:45:48.004Z,0.90
2023-02-26T12:48:46.968Z,1.23
2023-02-26T12:51:39.434Z,1.10
2023-02-26T12:54:31.885Z,1.27
2023-02-26T12:57:13.429Z,1.20
2023-02-26T13:00:06.568Z,0.97
2023-02-26T13:03:14.674Z,1.43
2023-02-26T13:06:09.052Z,1.20
2023-02-26T13:08:42.289Z,1.40
2023-02-26T13:11:20.385Z,1.10
2023-02-26T13:14:11.827Z,1.63
2023-02-26T13:17:03.882Z,1.93
2023-02-26T13:19:48.756Z,1.67
2023-02-26T13:22:24.088Z,1.37
2023-02-26T13:24:52.619Z,1.20
2023-02-26T13:27:20.105Z,1.00
2023-02-26T13:30:04.704Z,1.00
2023-02-26T13:32:32.100Z,1.10
2023-02-26T13:35:06.479Z,1.13
2023-02-26T13:37:38.868Z,1.60
2023-02-26T13:40:41.761Z,1.27
2023-02-26T13:43:24.409Z,1.33
2023-02-26T13:46:12.981Z,1.50
2023-02-26T13:49:05.315Z,1.80
2023-02-26T13:51:35.391Z,1.50
2023-02-26T13:54:30.565Z,1.70
2023-02-26T13:57:26.151Z,2.27
2023-02-26T14:00:28.576Z,1.57
2023-02-26T14:03:16.199Z,1.30
2023-02-26T14:05:46.802Z,1.60
2023-02-26T14:08:26.486Z,1.30
2023-02-26T14:11:03.120Z,1.87
2023-02-26T14:13:39.324Z,1.87
2023-02-26T14:16:28.245Z,1.60
2023-02-26T14:19:23.858Z,1.37
2023-02-26T14:21:59.823Z,1.23
2023-02-26T14:24:38.700Z,1.93
2023-02-26T14:27:33.703Z,1.40
2023-02-26T14:30:31.206Z,1.70
2023-02-26T14:33:03.655Z,0.83
2023-02-26T14:35:51.818Z,1.50
2023-02-26T14:38:29.267Z,1.00
2023-02-26T14:41:09.626Z,1.40
2023-02-26T14:43:42.327Z,1.87
2023-02-26T14:46:10.366Z,1.47
2023-02-26T14:48:38.076Z,1.50
2023-02-26T14:51:35.264Z,1.40
2023-02-26T14:54:18.651Z,1.70
2023-02-26T14:57:03.385Z,1.60
2023-02-26T14:59:47.502Z,1.43
2023-02-26T15:02:18.081Z,1.40
2023-02-26T15:05:10.464Z,1.47
2023-02-26T15:08:04.018Z,1.30
2023-02-26T15:11:06.717Z,1.30
2023-02-26T15:13:52.782Z,1.40
2023-02-26T15:16:29.137Z,2.03
2023-02-26T15:19:11.210Z,1.70
2023-02-26T15:21:57.478Z,1.60
2023-02-26T15:24:24.847Z,1.37
2023-02-26T15:26:55.067Z,2.00
2023-02-26T15:29:24.663Z,1.70
2023-02-26T15:31:58.118Z,1.60
2023-02-26T15:34:25.686Z,1.47
2023-02-26T15:36:54.470Z,2.10
2023-02-26T15:39:23.950Z,2.20
2023-02-26T15:41:52.456Z,1.70
2023-02-26T15:44:24.395Z,1.47
2023-02-26T15:46:55.865Z,1.57
2023-02-26T15:49:31.931Z,1.97
2023-02-26T15:51:59.670Z,2.77
2023-02-26T15:54:32.544Z,1.40
2023-02-26T15:57:00.622Z,2.30
2023-02-26T15:59:28.856Z,2.60
2023-02-26T16:01:56.298Z,2.27
2023-02-26T16:04:24.068Z,2.10
2023-02-26T16:06:56.213Z,2.53
2023-02-26T16:09:30.657Z,3.57
2023-02-26T16:12:00.149Z,2.83
2023-02-26T16:14:38.685Z,1.70
2023-02-26T16:17:07.597Z,4.80
2023-02-26T16:19:42.665Z,1.77
2023-02-26T16:22:30.054Z,1.00
2023-02-26T16:25:10.046Z,1.50
2023-02-26T16:27:37.424Z,2.67
2023-02-26T16:30:05.827Z,1.90
2023-02-26T16:32:34.598Z,1.40
2023-02-26T16:35:08.718Z,1.40
2023-02-26T16:37:38.999Z,1.73
2023-02-26T16:40:12.263Z,1.80
2023-02-26T16:42:52.176Z,3.47
2023-02-26T16:45:20.460Z,4.33
2023-02-26T16:47:52.666Z,3.57
2023-02-26T16:50:22.565Z,1.97
2023-02-26T16:53:19.589Z,1.47
2023-02-26T16:55:55.864Z,1.60
2023-02-26T16:58:23.228Z,2.97
2023-02-26T17:00:53.251Z,1.63
2023-02-26T17:03:21.926Z,1.50
2023-02-26T17:06:06.224Z,2.20
2023-02-26T17:08:46.815Z,1.60
2023-02-26T17:11:33.434Z,1.80
2023-02-26T17:14:11.279Z,1.60
2023-02-26T17:16:38.811Z,1.43
2023-02-26T17:19:06.555Z,1.67
2023-02-26T17:21:33.972Z,1.50
2023-02-26T17:24:01.309Z,1.70
2023-02-26T17:26:28.616Z,1.53
2023-02-26T17:28:55.918Z,1.47
2023-02-26T17:31:23.604Z,2.00
2023-02-26T17:33:53.194Z,2.40
2023-02-26T17:36:20.725Z,2.40
2023-02-26T17:38:48.771Z,2.10
2023-02-26T17:41:17.764Z,1.87
2023-02-26T17:43:45.347Z,2.10
2023-02-26T17:46:13.018Z,2.07
2023-02-26T17:48:40.587Z,2.10
2023-02-26T17:51:09.624Z,2.63
2023-02-26T17:53:41.152Z,1.80
2023-02-26T17:56:11.722Z,2.03
2023-02-26T17:58:39.753Z,1.67
2023-02-26T18:01:08.363Z,2.73
2023-02-26T18:03:35.928Z,2.40
2023-02-26T18:06:03.503Z,2.30
2023-02-26T18:08:35.033Z,2.20
2023-02-26T18:11:02.874Z,1.97
2023-02-26T18:13:30.642Z,2.30
2023-02-26T18:15:59.156Z,3.10
2023-02-26T18:18:27.015Z,1.93
2023-02-26T18:20:54.402Z,2.20
2023-02-26T18:23:21.947Z,2.17
2023-02-26T18:25:50.976Z,2.20
2023-02-26T18:28:28.133Z,2.40
2023-02-26T18:30:55.921Z,2.50
2023-02-26T18:33:23.945Z,2.07
2023-02-26T18:35:55.395Z,2.17
2023-02-26T18:38:27.564Z,2.40
2023-02-26T18:40:55.180Z,1.80
2023-02-26T18:43:22.543Z,2.20
2023-02-26T18:45:51.076Z,2.10
2023-02-26T18:48:20.648Z,2.20
2023-02-26T18:50:48.474Z,2.20
2023-02-26T18:53:17.574Z,2.33
2023-02-26T18:55:44.977Z,1.80
2023-02-26T18:58:12.417Z,1.90
2023-02-26T19:00:39.798Z,2.27
2023-02-26T19:03:09.347Z,2.53
2023-02-26T19:05:37.205Z,1.83
2023-02-26T19:08:05.185Z,2.30
2023-02-26T19:10:33.828Z,2.87
2023-02-26T19:13:01.274Z,2.53
2023-02-26T19:15:28.969Z,2.17
2023-02-26T19:17:56.564Z,2.47
2023-02-26T19:20:23.793Z,2.27
2023-02-26T19:22:51.314Z,2.70
2023-02-26T19:25:24.222Z,2.23
2023-02-26T19:27:53.803Z,2.50
2023-02-26T19:30:22.138Z,2.17
2023-02-26T19:32:50.257Z,2.50
2023-02-26T19:35:18.469Z,2.30
2023-02-26T19:37:45.821Z,2.40
2023-02-26T19:40:17.056Z,2.27
2023-02-26T19:42:44.508Z,2.60
2023-02-26T19:45:12.402Z,2.90
2023-02-26T19:47:39.758Z,3.33
2023-02-26T19:50:08.468Z,2.00
2023-02-26T19:52:37.633Z,3.90
2023-02-26T19:55:06.461Z,2.37
2023-02-26T19:57:33.967Z,2.93
2023-02-26T20:00:03.442Z,2.60
2023-02-26T20:02:30.938Z,2.43
2023-02-26T20:04:58.538Z,1.83
2023-02-26T20:07:26.641Z,2.10
2023-02-26T20:09:53.944Z,2.00
2023-02-26T20:12:21.582Z,2.07
2023-02-26T20:14:49.019Z,2.40
2023-02-26T20:17:16.406Z,2.70
2023-02-26T20:19:45.053Z,2.87
2023-02-26T20:22:12.233Z,2.87
2023-02-26T20:24:39.767Z,2.93
2023-02-26T20:27:07.560Z,2.97
2023-02-26T20:29:34.986Z,2.50
2023-02-26T20:32:02.642Z,2.90
2023-02-26T20:34:30.150Z,2.87
2023-02-26T20:36:57.510Z,2.70
2023-02-26T20:39:24.887Z,3.73
2023-02-26T20:41:52.311Z,3.97
2023-02-26T20:44:19.822Z,3.47
2023-02-26T20:46:47.394Z,2.83
2023-02-26T20:49:14.764Z,3.40
2023-02-26T20:51:42.522Z,4.27
2023-02-26T20:54:10.953Z,3.47
2023-02-26T20:56:38.338Z,4.07
2023-02-26T20:59:05.727Z,4.00
2023-02-26T21:01:35.874Z,4.70
2023-02-26T21:04:04.758Z,4.33
2023-02-26T21:06:32.650Z,5.13
2023-02-26T21:09:00.793Z,4.33
2023-02-26T21:11:31.372Z,4.13
2023-02-26T21:13:59.533Z,5.17
2023-02-26T21:16:28.710Z,4.53
2023-02-26T21:18:59.363Z,4.90
2023-02-26T21:21:26.958Z,4.90
2023-02-26T21:23:54.488Z,4.43
2023-02-26T21:26:22.270Z,5.23
2023-02-26T21:28:49.987Z,4.30
2023-02-26T21:31:18.598Z,5.43
2023-02-26T21:33:46.156Z,5.10
2023-02-26T21:36:14.772Z,4.73
2023-02-26T21:38:42.466Z,5.03
2023-02-26T21:41:13.050Z,4.40
2023-02-26T21:43:40.452Z,4.83
2023-02-26T21:46:07.836Z,4.50
2023-02-26T21:48:35.196Z,5.27
2023-02-26T21:51:02.509Z,4.10
2023-02-26T21:53:29.868Z,4.70
2023-02-26T21:55:58.126Z,4.60
2023-02-26T21:58:25.961Z,4.37
2023-02-26T22:00:53.347Z,4.70
2023-02-26T22:03:20.933Z,4.83
2023-02-26T22:05:52.264Z,4.77
2023-02-26T22:08:19.983Z,4.70
2023-02-26T22:10:47.460Z,4.77
2023-02-26T22:13:15.018Z,5.00
2023-02-26T22:15:42.961Z,4.80
2023-02-26T22:18:10.301Z,4.70
2023-02-26T22:20:37.647Z,4.33
2023-02-26T22:23:05.201Z,4.53
2023-02-26T22:25:32.667Z,3.97
2023-02-26T22:28:00.035Z,4.37
2023-02-26T22:30:27.597Z,2.93
2023-02-26T22:32:55.040Z,4.07
2023-02-26T22:35:22.711Z,3.63
2023-02-26T22:37:50.108Z,4.27
2023-02-26T22:40:17.596Z,3.23
2023-02-26T22:42:45.013Z,4.47
2023-02-26T22:45:13.841Z,4.20
2023-02-26T22:47:41.237Z,4.00
2023-02-26T22:50:09.000Z,4.30
2023-02-26T22:52:36.338Z,4.17
2023-02-26T22:55:03.701Z,4.37
2023-02-26T22:57:31.109Z,3.10
2023-02-26T22:59:58.590Z,4.20
2023-02-26T23:02:26.000Z,4.37
2023-02-26T23:04:53.293Z,4.13
2023-02-26T23:07:20.781Z,4.27
2023-02-26T23:09:48.106Z,3.67
2023-02-26T23:12:15.628Z,3.90
2023-02-26T23:14:43.126Z,3.93
2023-02-26T23:17:11.729Z,3.90
2023-02-26T23:19:39.309Z,4.00
2023-02-26T23:22:06.726Z,4.13
2023-02-26T23:24:34.163Z,4.10
2023-02-26T23:27:01.869Z,4.37
2023-02-26T23:29:29.274Z,3.87
2023-02-26T23:31:56.808Z,5.00
2023-02-26T23:34:24.286Z,4.70
2023-02-26T23:36:51.593Z,4.43
2023-02-26T23:39:18.960Z,4.77
2023-02-26T23:41:46.390Z,5.20
2023-02-26T23:44:13.708Z,4.70
2023-02-26T23:46:41.013Z,4.43
2023-02-26T23:49:09.803Z,4.73
2023-02-26T23:51:38.721Z,4.30
2023-02-26T23:54:06.665Z,4.67
2023-02-26T23:56:34.012Z,4.37
2023-02-26T23:59:01.338Z,4.90
